sensor_id;sensor_type;location;lat;lon;timestamp;P1;durP1;ratioP1;P2;durP2;ratioP2
68365;SDS011;55283;51.466;5.478;2022-11-15T00:01:40;4.10;;;3.10;;
68365;SDS011;55283;51.466;5.478;2022-11-15T00:04:05;5.80;;;3.20;;
68365;SDS011;55283;51.466;5.478;2022-11-15T00:06:32;3.72;;;3.30;;
68365;SDS011;55283;51.466;5.478;2022-11-15T00:08:58;4.33;;;3.40;;
68365;SDS011;55283;51.466;5.478;2022-11-15T00:11:24;4.03;;;3.10;;
68365;SDS011;55283;51.466;5.478;2022-11-15T00:13:50;12.13;;;3.47;;
68365;SDS011;55283;51.466;5.478;2022-11-15T00:16:17;3.50;;;2.90;;
68365;SDS011;55283;51.466;5.478;2022-11-15T00:18:42;4.25;;;3.40;;
68365;SDS011;55283;51.466;5.478;2022-11-15T00:21:11;3.70;;;3.20;;
68365;SDS011;55283;51.466;5.478;2022-11-15T00:23:37;3.90;;;3.15;;
68365;SDS011;55283;51.466;5.478;2022-11-15T00:26:04;3.50;;;2.88;;
68365;SDS011;55283;51.466;5.478;2022-11-15T00:28:35;4.20;;;3.30;;
68365;SDS011;55283;51.466;5.478;2022-11-15T00:31:01;4.87;;;3.00;;
68365;SDS011;55283;51.466;5.478;2022-11-15T00:33:31;3.87;;;3.13;;
68365;SDS011;55283;51.466;5.478;2022-11-15T00:36:03;4.15;;;3.00;;
68365;SDS011;55283;51.466;5.478;2022-11-15T00:38:35;4.25;;;3.33;;
68365;SDS011;55283;51.466;5.478;2022-11-15T00:41:02;5.13;;;3.23;;
68365;SDS011;55283;51.466;5.478;2022-11-15T00:43:28;4.00;;;3.30;;
68365;SDS011;55283;51.466;5.478;2022-11-15T00:45:56;3.20;;;2.88;;
68365;SDS011;55283;51.466;5.478;2022-11-15T00:48:22;4.07;;;3.30;;
68365;SDS011;55283;51.466;5.478;2022-11-15T00:50:48;3.47;;;3.17;;
68365;SDS011;55283;51.466;5.478;2022-11-15T00:53:14;3.80;;;3.03;;
68365;SDS011;55283;51.466;5.478;2022-11-15T00:55:39;3.93;;;3.40;;
68365;SDS011;55283;51.466;5.478;2022-11-15T00:58:07;4.10;;;3.10;;
68365;SDS011;55283;51.466;5.478;2022-11-15T01:00:33;3.80;;;3.40;;
68365;SDS011;55283;51.466;5.478;2022-11-15T01:02:59;3.20;;;2.90;;
68365;SDS011;55283;51.466;5.478;2022-11-15T01:05:25;3.78;;;3.20;;
68365;SDS011;55283;51.466;5.478;2022-11-15T01:07:51;3.67;;;3.17;;
68365;SDS011;55283;51.466;5.478;2022-11-15T01:10:18;4.43;;;3.28;;
68365;SDS011;55283;51.466;5.478;2022-11-15T01:12:50;3.97;;;3.37;;
68365;SDS011;55283;51.466;5.478;2022-11-15T01:15:16;3.85;;;3.10;;
68365;SDS011;55283;51.466;5.478;2022-11-15T01:17:41;3.70;;;3.30;;
68365;SDS011;55283;51.466;5.478;2022-11-15T01:20:07;4.40;;;3.43;;
68365;SDS011;55283;51.466;5.478;2022-11-15T01:22:33;3.63;;;3.03;;
68365;SDS011;55283;51.466;5.478;2022-11-15T01:24:58;3.63;;;3.23;;
68365;SDS011;55283;51.466;5.478;2022-11-15T01:27:24;3.57;;;3.13;;
68365;SDS011;55283;51.466;5.478;2022-11-15T01:29:49;4.03;;;3.30;;
68365;SDS011;55283;51.466;5.478;2022-11-15T01:32:15;3.40;;;3.10;;
68365;SDS011;55283;51.466;5.478;2022-11-15T01:34:40;3.47;;;3.13;;
68365;SDS011;55283;51.466;5.478;2022-11-15T01:37:06;3.45;;;3.15;;
68365;SDS011;55283;51.466;5.478;2022-11-15T01:39:31;3.93;;;3.00;;
68365;SDS011;55283;51.466;5.478;2022-11-15T01:41:57;3.87;;;3.30;;
68365;SDS011;55283;51.466;5.478;2022-11-15T01:46:54;3.50;;;3.10;;
68365;SDS011;55283;51.466;5.478;2022-11-15T01:49:20;3.37;;;3.03;;
68365;SDS011;55283;51.466;5.478;2022-11-15T01:51:48;4.25;;;3.30;;
68365;SDS011;55283;51.466;5.478;2022-11-15T01:54:14;3.10;;;2.80;;
68365;SDS011;55283;51.466;5.478;2022-11-15T01:56:45;3.60;;;3.10;;
68365;SDS011;55283;51.466;5.478;2022-11-15T01:59:22;3.72;;;3.13;;
68365;SDS011;55283;51.466;5.478;2022-11-15T02:01:48;4.07;;;2.80;;
68365;SDS011;55283;51.466;5.478;2022-11-15T02:04:32;5.38;;;3.20;;
68365;SDS011;55283;51.466;5.478;2022-11-15T02:07:03;4.10;;;3.40;;
68365;SDS011;55283;51.466;5.478;2022-11-15T02:09:30;4.00;;;3.10;;
68365;SDS011;55283;51.466;5.478;2022-11-15T02:11:55;3.60;;;3.03;;
68365;SDS011;55283;51.466;5.478;2022-11-15T02:14:25;3.88;;;2.85;;
68365;SDS011;55283;51.466;5.478;2022-11-15T02:17:08;4.53;;;3.40;;
68365;SDS011;55283;51.466;5.478;2022-11-15T02:31:23;3.77;;;2.90;;
68365;SDS011;55283;51.466;5.478;2022-11-15T02:34:05;5.90;;;2.75;;
68365;SDS011;55283;51.466;5.478;2022-11-15T02:39:31;3.33;;;3.00;;
68365;SDS011;55283;51.466;5.478;2022-11-15T02:42:05;3.42;;;3.00;;
68365;SDS011;55283;51.466;5.478;2022-11-15T02:44:57;3.78;;;2.75;;
68365;SDS011;55283;51.466;5.478;2022-11-15T02:47:29;4.20;;;2.90;;
68365;SDS011;55283;51.466;5.478;2022-11-15T02:50:02;3.50;;;2.90;;
68365;SDS011;55283;51.466;5.478;2022-11-15T02:52:33;3.63;;;2.70;;
68365;SDS011;55283;51.466;5.478;2022-11-15T02:55:01;3.67;;;2.90;;
68365;SDS011;55283;51.466;5.478;2022-11-15T02:57:45;4.33;;;2.90;;
68365;SDS011;55283;51.466;5.478;2022-11-15T03:00:18;3.72;;;2.80;;
68365;SDS011;55283;51.466;5.478;2022-11-15T03:05:44;3.10;;;2.80;;
68365;SDS011;55283;51.466;5.478;2022-11-15T03:11:07;3.10;;;2.70;;
68365;SDS011;55283;51.466;5.478;2022-11-15T03:18:57;4.33;;;3.03;;
68365;SDS011;55283;51.466;5.478;2022-11-15T03:21:28;4.40;;;3.03;;
68365;SDS011;55283;51.466;5.478;2022-11-15T03:23:55;3.78;;;2.95;;
68365;SDS011;55283;51.466;5.478;2022-11-15T03:26:25;3.50;;;2.70;;
68365;SDS011;55283;51.466;5.478;2022-11-15T03:28:55;3.30;;;2.70;;
68365;SDS011;55283;51.466;5.478;2022-11-15T03:31:25;3.67;;;2.80;;
68365;SDS011;55283;51.466;5.478;2022-11-15T03:34:35;3.15;;;2.63;;
68365;SDS011;55283;51.466;5.478;2022-11-15T03:37:07;3.50;;;2.83;;
68365;SDS011;55283;51.466;5.478;2022-11-15T03:39:35;4.78;;;2.90;;
68365;SDS011;55283;51.466;5.478;2022-11-15T03:42:06;5.60;;;3.20;;
68365;SDS011;55283;51.466;5.478;2022-11-15T03:50:08;4.23;;;2.90;;
68365;SDS011;55283;51.466;5.478;2022-11-15T03:52:37;3.45;;;2.97;;
68365;SDS011;55283;51.466;5.478;2022-11-15T03:55:05;3.90;;;2.75;;
68365;SDS011;55283;51.466;5.478;2022-11-15T03:57:36;4.90;;;3.00;;
68365;SDS011;55283;51.466;5.478;2022-11-15T04:00:05;4.13;;;3.20;;
68365;SDS011;55283;51.466;5.478;2022-11-15T04:02:31;3.17;;;2.75;;
68365;SDS011;55283;51.466;5.478;2022-11-15T04:04:58;4.80;;;2.77;;
68365;SDS011;55283;51.466;5.478;2022-11-15T04:07:24;3.42;;;2.88;;
68365;SDS011;55283;51.466;5.478;2022-11-15T04:09:52;3.53;;;2.93;;
68365;SDS011;55283;51.466;5.478;2022-11-15T04:12:35;4.05;;;2.72;;
68365;SDS011;55283;51.466;5.478;2022-11-15T04:15:09;4.35;;;3.10;;
68365;SDS011;55283;51.466;5.478;2022-11-15T04:20:22;3.42;;;2.75;;
68365;SDS011;55283;51.466;5.478;2022-11-15T04:23:16;4.00;;;2.90;;
68365;SDS011;55283;51.466;5.478;2022-11-15T04:26:08;4.40;;;3.40;;
68365;SDS011;55283;51.466;5.478;2022-11-15T04:28:36;3.83;;;3.13;;
68365;SDS011;55283;51.466;5.478;2022-11-15T04:31:22;3.88;;;2.78;;
68365;SDS011;55283;51.466;5.478;2022-11-15T04:33:47;3.97;;;3.20;;
68365;SDS011;55283;51.466;5.478;2022-11-15T04:36:13;3.50;;;3.20;;
68365;SDS011;55283;51.466;5.478;2022-11-15T04:39:00;3.60;;;2.85;;
68365;SDS011;55283;51.466;5.478;2022-11-15T04:41:26;3.38;;;2.90;;
68365;SDS011;55283;51.466;5.478;2022-11-15T04:43:51;4.27;;;2.90;;
68365;SDS011;55283;51.466;5.478;2022-11-15T04:46:16;3.87;;;2.90;;
68365;SDS011;55283;51.466;5.478;2022-11-15T04:48:42;4.20;;;3.10;;
68365;SDS011;55283;51.466;5.478;2022-11-15T04:51:07;4.57;;;3.05;;
68365;SDS011;55283;51.466;5.478;2022-11-15T04:53:33;3.37;;;2.73;;
68365;SDS011;55283;51.466;5.478;2022-11-15T04:55:58;3.90;;;3.00;;
68365;SDS011;55283;51.466;5.478;2022-11-15T04:58:24;4.50;;;3.10;;
68365;SDS011;55283;51.466;5.478;2022-11-15T05:00:52;4.35;;;3.13;;
68365;SDS011;55283;51.466;5.478;2022-11-15T05:03:17;3.40;;;2.93;;
68365;SDS011;55283;51.466;5.478;2022-11-15T05:06:01;3.50;;;3.00;;
68365;SDS011;55283;51.466;5.478;2022-11-15T05:08:29;3.17;;;2.80;;
68365;SDS011;55283;51.466;5.478;2022-11-15T05:10:54;3.40;;;2.80;;
68365;SDS011;55283;51.466;5.478;2022-11-15T05:13:20;4.40;;;2.83;;
68365;SDS011;55283;51.466;5.478;2022-11-15T05:15:46;3.90;;;3.20;;
68365;SDS011;55283;51.466;5.478;2022-11-15T05:18:12;3.38;;;3.00;;
68365;SDS011;55283;51.466;5.478;2022-11-15T05:20:38;3.67;;;2.80;;
68365;SDS011;55283;51.466;5.478;2022-11-15T05:23:03;4.30;;;3.30;;
68365;SDS011;55283;51.466;5.478;2022-11-15T05:25:29;3.93;;;2.90;;
68365;SDS011;55283;51.466;5.478;2022-11-15T05:27:54;5.13;;;3.22;;
68365;SDS011;55283;51.466;5.478;2022-11-15T05:30:20;3.27;;;2.80;;
68365;SDS011;55283;51.466;5.478;2022-11-15T05:32:45;4.07;;;2.90;;
68365;SDS011;55283;51.466;5.478;2022-11-15T05:35:19;3.60;;;3.00;;
68365;SDS011;55283;51.466;5.478;2022-11-15T05:37:53;3.70;;;2.83;;
68365;SDS011;55283;51.466;5.478;2022-11-15T05:40:18;3.57;;;3.20;;
68365;SDS011;55283;51.466;5.478;2022-11-15T05:42:44;4.55;;;3.05;;
68365;SDS011;55283;51.466;5.478;2022-11-15T05:45:10;3.90;;;2.67;;
68365;SDS011;55283;51.466;5.478;2022-11-15T05:47:36;4.20;;;3.17;;
68365;SDS011;55283;51.466;5.478;2022-11-15T05:50:02;3.50;;;2.85;;
68365;SDS011;55283;51.466;5.478;2022-11-15T05:52:31;5.20;;;3.00;;
68365;SDS011;55283;51.466;5.478;2022-11-15T05:54:59;3.03;;;2.72;;
68365;SDS011;55283;51.466;5.478;2022-11-15T05:57:29;4.05;;;3.05;;
68365;SDS011;55283;51.466;5.478;2022-11-15T05:59:54;4.47;;;3.27;;
68365;SDS011;55283;51.466;5.478;2022-11-15T06:02:20;3.38;;;2.80;;
68365;SDS011;55283;51.466;5.478;2022-11-15T06:04:45;4.20;;;3.10;;
68365;SDS011;55283;51.466;5.478;2022-11-15T06:07:11;3.77;;;2.70;;
68365;SDS011;55283;51.466;5.478;2022-11-15T06:09:38;4.97;;;3.10;;
68365;SDS011;55283;51.466;5.478;2022-11-15T06:12:04;4.97;;;2.80;;
68365;SDS011;55283;51.466;5.478;2022-11-15T06:14:29;4.70;;;3.00;;
68365;SDS011;55283;51.466;5.478;2022-11-15T06:16:55;3.92;;;2.78;;
68365;SDS011;55283;51.466;5.478;2022-11-15T06:19:20;3.43;;;2.83;;
68365;SDS011;55283;51.466;5.478;2022-11-15T06:21:46;3.43;;;2.73;;
68365;SDS011;55283;51.466;5.478;2022-11-15T06:24:11;4.80;;;2.87;;
68365;SDS011;55283;51.466;5.478;2022-11-15T06:26:38;5.18;;;2.70;;
68365;SDS011;55283;51.466;5.478;2022-11-15T06:29:06;3.60;;;2.97;;
68365;SDS011;55283;51.466;5.478;2022-11-15T06:31:32;3.72;;;2.50;;
68365;SDS011;55283;51.466;5.478;2022-11-15T06:33:58;6.63;;;2.67;;
68365;SDS011;55283;51.466;5.478;2022-11-15T06:36:24;3.83;;;2.78;;
68365;SDS011;55283;51.466;5.478;2022-11-15T06:38:49;3.50;;;2.90;;
68365;SDS011;55283;51.466;5.478;2022-11-15T06:41:15;4.97;;;2.90;;
68365;SDS011;55283;51.466;5.478;2022-11-15T06:43:41;4.45;;;2.92;;
68365;SDS011;55283;51.466;5.478;2022-11-15T06:46:07;4.60;;;2.83;;
68365;SDS011;55283;51.466;5.478;2022-11-15T06:48:33;3.42;;;3.03;;
68365;SDS011;55283;51.466;5.478;2022-11-15T06:51:00;4.53;;;2.78;;
68365;SDS011;55283;51.466;5.478;2022-11-15T06:53:27;4.13;;;2.67;;
68365;SDS011;55283;51.466;5.478;2022-11-15T06:55:52;3.88;;;2.78;;
68365;SDS011;55283;51.466;5.478;2022-11-15T06:58:18;5.07;;;2.60;;
68365;SDS011;55283;51.466;5.478;2022-11-15T07:00:48;4.43;;;2.75;;
68365;SDS011;55283;51.466;5.478;2022-11-15T07:03:17;6.68;;;3.05;;
68365;SDS011;55283;51.466;5.478;2022-11-15T07:05:49;7.17;;;3.90;;
68365;SDS011;55283;51.466;5.478;2022-11-15T07:08:16;11.38;;;4.35;;
68365;SDS011;55283;51.466;5.478;2022-11-15T07:10:41;6.60;;;4.30;;
68365;SDS011;55283;51.466;5.478;2022-11-15T07:13:06;8.17;;;4.37;;
68365;SDS011;55283;51.466;5.478;2022-11-15T07:15:32;7.07;;;4.30;;
68365;SDS011;55283;51.466;5.478;2022-11-15T07:18:00;7.93;;;4.83;;
68365;SDS011;55283;51.466;5.478;2022-11-15T07:20:26;8.70;;;4.85;;
68365;SDS011;55283;51.466;5.478;2022-11-15T07:22:55;10.60;;;5.10;;
68365;SDS011;55283;51.466;5.478;2022-11-15T07:25:24;10.38;;;4.75;;
68365;SDS011;55283;51.466;5.478;2022-11-15T07:27:59;6.33;;;4.37;;
68365;SDS011;55283;51.466;5.478;2022-11-15T07:30:28;8.57;;;4.55;;
68365;SDS011;55283;51.466;5.478;2022-11-15T07:32:57;6.43;;;4.27;;
68365;SDS011;55283;51.466;5.478;2022-11-15T07:35:24;6.97;;;4.30;;
68365;SDS011;55283;51.466;5.478;2022-11-15T07:38:01;9.13;;;4.93;;
68365;SDS011;55283;51.466;5.478;2022-11-15T07:40:28;7.63;;;4.43;;
68365;SDS011;55283;51.466;5.478;2022-11-15T07:43:04;11.43;;;5.70;;
68365;SDS011;55283;51.466;5.478;2022-11-15T07:45:34;7.30;;;4.78;;
68365;SDS011;55283;51.466;5.478;2022-11-15T07:48:08;8.63;;;4.35;;
68365;SDS011;55283;51.466;5.478;2022-11-15T07:50:33;6.10;;;4.23;;
68365;SDS011;55283;51.466;5.478;2022-11-15T07:52:59;11.50;;;4.50;;
68365;SDS011;55283;51.466;5.478;2022-11-15T07:55:25;11.83;;;4.53;;
68365;SDS011;55283;51.466;5.478;2022-11-15T07:57:52;7.05;;;4.13;;
68365;SDS011;55283;51.466;5.478;2022-11-15T08:00:26;5.28;;;3.47;;
68365;SDS011;55283;51.466;5.478;2022-11-15T08:02:52;6.33;;;3.40;;
68365;SDS011;55283;51.466;5.478;2022-11-15T08:05:19;4.03;;;3.15;;
68365;SDS011;55283;51.466;5.478;2022-11-15T08:07:45;4.37;;;2.80;;
68365;SDS011;55283;51.466;5.478;2022-11-15T08:10:10;4.53;;;3.10;;
68365;SDS011;55283;51.466;5.478;2022-11-15T08:12:36;4.90;;;3.03;;
68365;SDS011;55283;51.466;5.478;2022-11-15T08:15:02;5.40;;;3.10;;
68365;SDS011;55283;51.466;5.478;2022-11-15T08:17:27;5.50;;;3.05;;
68365;SDS011;55283;51.466;5.478;2022-11-15T08:19:56;5.03;;;2.67;;
68365;SDS011;55283;51.466;5.478;2022-11-15T08:22:25;4.80;;;2.83;;
68365;SDS011;55283;51.466;5.478;2022-11-15T08:24:50;4.17;;;3.10;;
68365;SDS011;55283;51.466;5.478;2022-11-15T08:27:15;5.90;;;2.70;;
68365;SDS011;55283;51.466;5.478;2022-11-15T08:29:42;3.75;;;2.75;;
68365;SDS011;55283;51.466;5.478;2022-11-15T08:32:08;6.03;;;2.80;;
68365;SDS011;55283;51.466;5.478;2022-11-15T08:34:33;3.55;;;2.70;;
68365;SDS011;55283;51.466;5.478;2022-11-15T08:36:59;4.97;;;2.33;;
68365;SDS011;55283;51.466;5.478;2022-11-15T08:39:26;4.57;;;2.40;;
68365;SDS011;55283;51.466;5.478;2022-11-15T08:41:52;4.37;;;2.40;;
68365;SDS011;55283;51.466;5.478;2022-11-15T08:44:17;3.67;;;2.40;;
68365;SDS011;55283;51.466;5.478;2022-11-15T08:46:45;3.20;;;2.40;;
68365;SDS011;55283;51.466;5.478;2022-11-15T08:49:11;6.50;;;2.53;;
68365;SDS011;55283;51.466;5.478;2022-11-15T08:51:36;4.30;;;2.63;;
68365;SDS011;55283;51.466;5.478;2022-11-15T08:54:01;4.63;;;2.23;;
68365;SDS011;55283;51.466;5.478;2022-11-15T08:56:27;5.27;;;2.20;;
68365;SDS011;55283;51.466;5.478;2022-11-15T08:58:54;3.53;;;2.10;;
68365;SDS011;55283;51.466;5.478;2022-11-15T09:01:20;2.87;;;2.17;;
68365;SDS011;55283;51.466;5.478;2022-11-15T09:03:45;4.25;;;2.13;;
68365;SDS011;55283;51.466;5.478;2022-11-15T09:06:13;2.53;;;1.90;;
68365;SDS011;55283;51.466;5.478;2022-11-15T09:08:39;4.00;;;2.20;;
68365;SDS011;55283;51.466;5.478;2022-11-15T09:11:05;4.77;;;1.93;;
68365;SDS011;55283;51.466;5.478;2022-11-15T09:13:35;3.70;;;2.33;;
68365;SDS011;55283;51.466;5.478;2022-11-15T09:16:02;3.05;;;2.22;;
68365;SDS011;55283;51.466;5.478;2022-11-15T09:18:30;2.35;;;2.00;;
68365;SDS011;55283;51.466;5.478;2022-11-15T09:21:02;3.23;;;2.20;;
68365;SDS011;55283;51.466;5.478;2022-11-15T09:23:27;2.42;;;2.10;;
68365;SDS011;55283;51.466;5.478;2022-11-15T09:25:57;5.00;;;2.17;;
68365;SDS011;55283;51.466;5.478;2022-11-15T09:28:24;2.78;;;1.90;;
68365;SDS011;55283;51.466;5.478;2022-11-15T09:30:49;2.80;;;2.13;;
68365;SDS011;55283;51.466;5.478;2022-11-15T09:33:17;2.42;;;1.80;;
68365;SDS011;55283;51.466;5.478;2022-11-15T09:35:42;3.23;;;2.07;;
68365;SDS011;55283;51.466;5.478;2022-11-15T09:38:08;3.92;;;1.98;;
68365;SDS011;55283;51.466;5.478;2022-11-15T09:40:37;2.83;;;2.00;;
68365;SDS011;55283;51.466;5.478;2022-11-15T09:48:54;1.95;;;1.80;;
68365;SDS011;55283;51.466;5.478;2022-11-15T09:56:34;2.75;;;1.55;;
68365;SDS011;55283;51.466;5.478;2022-11-15T10:01:43;1.90;;;1.50;;
68365;SDS011;55283;51.466;5.478;2022-11-15T10:04:14;2.58;;;1.65;;
68365;SDS011;55283;51.466;5.478;2022-11-15T10:06:42;2.45;;;1.70;;
68365;SDS011;55283;51.466;5.478;2022-11-15T10:09:15;2.27;;;1.50;;
68365;SDS011;55283;51.466;5.478;2022-11-15T10:11:49;4.05;;;1.60;;
68365;SDS011;55283;51.466;5.478;2022-11-15T10:14:16;3.65;;;1.50;;
68365;SDS011;55283;51.466;5.478;2022-11-15T10:24:43;1.63;;;1.50;;
68365;SDS011;55283;51.466;5.478;2022-11-15T10:27:13;2.95;;;1.52;;
68365;SDS011;55283;51.466;5.478;2022-11-15T10:29:49;2.35;;;1.40;;
68365;SDS011;55283;51.466;5.478;2022-11-15T10:32:16;2.20;;;1.47;;
68365;SDS011;55283;51.466;5.478;2022-11-15T10:34:44;2.35;;;1.30;;
68365;SDS011;55283;51.466;5.478;2022-11-15T10:37:10;1.80;;;1.40;;
68365;SDS011;55283;51.466;5.478;2022-11-15T10:39:36;1.75;;;1.20;;
68365;SDS011;55283;51.466;5.478;2022-11-15T10:42:15;3.27;;;1.60;;
68365;SDS011;55283;51.466;5.478;2022-11-15T10:44:42;1.90;;;1.40;;
68365;SDS011;55283;51.466;5.478;2022-11-15T10:47:24;1.92;;;1.40;;
68365;SDS011;55283;51.466;5.478;2022-11-15T10:49:56;2.50;;;1.20;;
68365;SDS011;55283;51.466;5.478;2022-11-15T10:52:27;1.73;;;1.38;;
68365;SDS011;55283;51.466;5.478;2022-11-15T10:57:38;1.83;;;1.20;;
68365;SDS011;55283;51.466;5.478;2022-11-15T11:05:31;2.58;;;1.40;;
68365;SDS011;55283;51.466;5.478;2022-11-15T11:10:58;3.58;;;1.70;;
68365;SDS011;55283;51.466;5.478;2022-11-15T11:18:25;3.13;;;1.60;;
68365;SDS011;55283;51.466;5.478;2022-11-15T11:21:11;9.15;;;2.53;;
68365;SDS011;55283;51.466;5.478;2022-11-15T11:23:52;4.15;;;2.00;;
68365;SDS011;55283;51.466;5.478;2022-11-15T11:34:48;4.18;;;1.70;;
68365;SDS011;55283;51.466;5.478;2022-11-15T11:40:45;2.45;;;1.33;;
68365;SDS011;55283;51.466;5.478;2022-11-15T11:49:02;2.50;;;1.30;;
68365;SDS011;55283;51.466;5.478;2022-11-15T11:51:36;2.20;;;1.30;;
68365;SDS011;55283;51.466;5.478;2022-11-15T11:54:12;2.22;;;1.40;;
68365;SDS011;55283;51.466;5.478;2022-11-15T11:56:43;4.87;;;1.50;;
68365;SDS011;55283;51.466;5.478;2022-11-15T11:59:28;2.13;;;1.30;;
68365;SDS011;55283;51.466;5.478;2022-11-15T12:01:56;3.60;;;1.23;;
68365;SDS011;55283;51.466;5.478;2022-11-15T12:04:30;3.30;;;1.40;;
68365;SDS011;55283;51.466;5.478;2022-11-15T12:07:03;2.47;;;1.45;;
68365;SDS011;55283;51.466;5.478;2022-11-15T12:10:01;3.70;;;1.20;;
68365;SDS011;55283;51.466;5.478;2022-11-15T12:15:23;2.53;;;1.33;;
68365;SDS011;55283;51.466;5.478;2022-11-15T12:17:54;2.28;;;1.30;;
68365;SDS011;55283;51.466;5.478;2022-11-15T12:23:23;3.27;;;1.40;;
68365;SDS011;55283;51.466;5.478;2022-11-15T12:33:31;3.93;;;1.33;;
68365;SDS011;55283;51.466;5.478;2022-11-15T12:36:00;3.47;;;1.40;;
68365;SDS011;55283;51.466;5.478;2022-11-15T12:38:57;2.17;;;1.10;;
68365;SDS011;55283;51.466;5.478;2022-11-15T12:41:38;3.83;;;1.20;;
68365;SDS011;55283;51.466;5.478;2022-11-15T12:44:09;2.00;;;1.20;;
68365;SDS011;55283;51.466;5.478;2022-11-15T13:02:34;7.00;;;1.30;;
68365;SDS011;55283;51.466;5.478;2022-11-15T13:17:43;2.60;;;1.00;;
68365;SDS011;55283;51.466;5.478;2022-11-15T13:22:45;2.70;;;1.27;;
68365;SDS011;55283;51.466;5.478;2022-11-15T13:28:03;2.63;;;1.20;;
68365;SDS011;55283;51.466;5.478;2022-11-15T13:30:48;2.60;;;1.20;;
68365;SDS011;55283;51.466;5.478;2022-11-15T13:33:25;2.53;;;1.30;;
68365;SDS011;55283;51.466;5.478;2022-11-15T13:36:00;2.00;;;1.08;;
68365;SDS011;55283;51.466;5.478;2022-11-15T13:40:55;2.25;;;1.10;;
68365;SDS011;55283;51.466;5.478;2022-11-15T13:48:30;2.53;;;1.20;;
68365;SDS011;55283;51.466;5.478;2022-11-15T13:50:59;2.35;;;1.08;;
68365;SDS011;55283;51.466;5.478;2022-11-15T13:53:27;2.42;;;1.23;;
68365;SDS011;55283;51.466;5.478;2022-11-15T13:55:55;1.73;;;1.17;;
68365;SDS011;55283;51.466;5.478;2022-11-15T13:58:23;1.93;;;1.13;;
68365;SDS011;55283;51.466;5.478;2022-11-15T14:00:48;2.30;;;1.13;;
68365;SDS011;55283;51.466;5.478;2022-11-15T14:03:38;2.00;;;1.20;;
68365;SDS011;55283;51.466;5.478;2022-11-15T14:06:16;1.33;;;0.90;;
68365;SDS011;55283;51.466;5.478;2022-11-15T14:11:31;3.30;;;1.20;;
68365;SDS011;55283;51.466;5.478;2022-11-15T14:19:32;1.63;;;1.00;;
68365;SDS011;55283;51.466;5.478;2022-11-15T14:24:44;2.42;;;0.98;;
68365;SDS011;55283;51.466;5.478;2022-11-15T14:29:42;2.20;;;1.03;;
68365;SDS011;55283;51.466;5.478;2022-11-15T14:34:47;1.35;;;0.93;;
68365;SDS011;55283;51.466;5.478;2022-11-15T14:37:21;1.30;;;0.95;;
68365;SDS011;55283;51.466;5.478;2022-11-15T14:40:00;2.58;;;1.17;;
68365;SDS011;55283;51.466;5.478;2022-11-15T14:42:26;2.73;;;1.17;;
68365;SDS011;55283;51.466;5.478;2022-11-15T14:44:52;1.23;;;0.90;;
68365;SDS011;55283;51.466;5.478;2022-11-15T14:47:17;1.43;;;1.10;;
68365;SDS011;55283;51.466;5.478;2022-11-15T14:49:43;2.28;;;1.02;;
68365;SDS011;55283;51.466;5.478;2022-11-15T14:52:28;1.17;;;0.80;;
68365;SDS011;55283;51.466;5.478;2022-11-15T14:54:55;2.00;;;1.00;;
68365;SDS011;55283;51.466;5.478;2022-11-15T14:57:22;1.45;;;0.90;;
68365;SDS011;55283;51.466;5.478;2022-11-15T14:59:50;1.63;;;0.90;;
68365;SDS011;55283;51.466;5.478;2022-11-15T15:02:18;1.92;;;1.00;;
68365;SDS011;55283;51.466;5.478;2022-11-15T15:04:48;1.50;;;0.95;;
68365;SDS011;55283;51.466;5.478;2022-11-15T15:07:19;1.60;;;0.90;;
68365;SDS011;55283;51.466;5.478;2022-11-15T15:09:45;1.38;;;0.77;;
68365;SDS011;55283;51.466;5.478;2022-11-15T15:12:15;2.17;;;1.10;;
68365;SDS011;55283;51.466;5.478;2022-11-15T15:14:42;3.27;;;1.10;;
68365;SDS011;55283;51.466;5.478;2022-11-15T15:17:10;1.95;;;0.90;;
68365;SDS011;55283;51.466;5.478;2022-11-15T15:19:36;1.73;;;1.10;;
68365;SDS011;55283;51.466;5.478;2022-11-15T15:22:01;6.77;;;1.27;;
68365;SDS011;55283;51.466;5.478;2022-11-15T15:24:27;2.47;;;1.20;;
68365;SDS011;55283;51.466;5.478;2022-11-15T15:26:52;2.77;;;0.97;;
68365;SDS011;55283;51.466;5.478;2022-11-15T15:29:18;5.10;;;1.00;;
68365;SDS011;55283;51.466;5.478;2022-11-15T15:31:43;2.63;;;0.97;;
68365;SDS011;55283;51.466;5.478;2022-11-15T15:34:08;3.20;;;0.90;;
68365;SDS011;55283;51.466;5.478;2022-11-15T15:36:34;2.47;;;1.10;;
68365;SDS011;55283;51.466;5.478;2022-11-15T15:38:59;1.67;;;1.00;;
68365;SDS011;55283;51.466;5.478;2022-11-15T15:41:25;1.20;;;1.00;;
68365;SDS011;55283;51.466;5.478;2022-11-15T15:43:50;1.70;;;1.00;;
68365;SDS011;55283;51.466;5.478;2022-11-15T15:46:18;1.30;;;0.83;;
68365;SDS011;55283;51.466;5.478;2022-11-15T15:48:44;1.45;;;1.08;;
68365;SDS011;55283;51.466;5.478;2022-11-15T15:51:11;2.35;;;0.90;;
68365;SDS011;55283;51.466;5.478;2022-11-15T15:53:39;2.93;;;1.20;;
68365;SDS011;55283;51.466;5.478;2022-11-15T15:56:05;1.73;;;1.00;;
68365;SDS011;55283;51.466;5.478;2022-11-15T15:58:33;2.60;;;1.00;;
68365;SDS011;55283;51.466;5.478;2022-11-15T16:00:58;1.38;;;0.90;;
68365;SDS011;55283;51.466;5.478;2022-11-15T16:03:24;1.03;;;0.90;;
68365;SDS011;55283;51.466;5.478;2022-11-15T16:05:52;2.40;;;1.00;;
68365;SDS011;55283;51.466;5.478;2022-11-15T16:08:19;1.40;;;0.85;;
68365;SDS011;55283;51.466;5.478;2022-11-15T16:10:46;1.17;;;0.83;;
68365;SDS011;55283;51.466;5.478;2022-11-15T16:13:11;1.33;;;0.90;;
68365;SDS011;55283;51.466;5.478;2022-11-15T16:15:36;3.00;;;1.00;;
68365;SDS011;55283;51.466;5.478;2022-11-15T16:18:05;2.20;;;1.10;;
68365;SDS011;55283;51.466;5.478;2022-11-15T16:23:08;1.60;;;1.08;;
68365;SDS011;55283;51.466;5.478;2022-11-15T16:25:45;2.95;;;1.08;;
68365;SDS011;55283;51.466;5.478;2022-11-15T16:28:18;1.37;;;0.93;;
68365;SDS011;55283;51.466;5.478;2022-11-15T16:30:58;1.77;;;1.10;;
68365;SDS011;55283;51.466;5.478;2022-11-15T16:33:25;1.70;;;1.20;;
68365;SDS011;55283;51.466;5.478;2022-11-15T16:35:51;3.23;;;1.20;;
68365;SDS011;55283;51.466;5.478;2022-11-15T16:38:16;2.72;;;1.10;;
68365;SDS011;55283;51.466;5.478;2022-11-15T16:40:42;4.23;;;1.20;;
68365;SDS011;55283;51.466;5.478;2022-11-15T16:43:08;2.03;;;1.10;;
68365;SDS011;55283;51.466;5.478;2022-11-15T16:45:33;1.40;;;0.90;;
68365;SDS011;55283;51.466;5.478;2022-11-15T16:48:02;2.17;;;1.17;;
68365;SDS011;55283;51.466;5.478;2022-11-15T16:50:29;2.10;;;1.10;;
68365;SDS011;55283;51.466;5.478;2022-11-15T16:52:57;2.30;;;1.30;;
68365;SDS011;55283;51.466;5.478;2022-11-15T16:55:28;5.88;;;1.15;;
68365;SDS011;55283;51.466;5.478;2022-11-15T16:57:54;1.70;;;1.05;;
68365;SDS011;55283;51.466;5.478;2022-11-15T17:00:22;1.10;;;1.00;;
68365;SDS011;55283;51.466;5.478;2022-11-15T17:02:48;3.85;;;1.10;;
68365;SDS011;55283;51.466;5.478;2022-11-15T17:05:16;1.95;;;1.05;;
68365;SDS011;55283;51.466;5.478;2022-11-15T17:07:48;1.57;;;1.00;;
68365;SDS011;55283;51.466;5.478;2022-11-15T17:10:19;2.42;;;1.15;;
68365;SDS011;55283;51.466;5.478;2022-11-15T17:12:46;2.08;;;1.17;;
68365;SDS011;55283;51.466;5.478;2022-11-15T17:15:11;2.10;;;1.00;;
68365;SDS011;55283;51.466;5.478;2022-11-15T17:17:38;3.17;;;1.17;;
68365;SDS011;55283;51.466;5.478;2022-11-15T17:20:03;1.80;;;1.17;;
68365;SDS011;55283;51.466;5.478;2022-11-15T17:22:34;2.13;;;1.00;;
68365;SDS011;55283;51.466;5.478;2022-11-15T17:25:00;1.65;;;1.25;;
68365;SDS011;55283;51.466;5.478;2022-11-15T17:27:26;3.13;;;1.00;;
68365;SDS011;55283;51.466;5.478;2022-11-15T17:29:51;2.40;;;1.20;;
68365;SDS011;55283;51.466;5.478;2022-11-15T17:32:17;2.67;;;1.20;;
68365;SDS011;55283;51.466;5.478;2022-11-15T17:34:42;1.40;;;1.10;;
68365;SDS011;55283;51.466;5.478;2022-11-15T17:37:07;1.70;;;1.13;;
68365;SDS011;55283;51.466;5.478;2022-11-15T17:39:33;1.63;;;1.40;;
68365;SDS011;55283;51.466;5.478;2022-11-15T17:41:58;2.57;;;1.17;;
68365;SDS011;55283;51.466;5.478;2022-11-15T17:44:23;1.93;;;1.10;;